Time;durP1;ratioP1;P1;durP2;ratioP2;P2;SDS_P1;SDS_P2;PMS_P1;PMS_P2;Temp;Humidity;BMP_temperature;BMP_pressure;BME280_temperature;BME280_humidity;BME280_pressure;Samples;Min_cycle;Max_cycle;Signal;HPM_P1;HPM_P2
2022/09/11 00:05:46;;;;;;;50.70;31.63;;;14.10;99.90;;;;;;2613596;54;20399;-73
2022/09/11 00:11:39;;;;;;;55.43;31.67;;;14.00;99.90;;;;;;2614849;46;20194;-75
2022/09/11 00:17:26;;;;;;;58.50;33.30;;;13.80;99.90;;;;;;2615670;54;20422;-74
2022/09/11 00:23:16;;;;;;;63.37;33.73;;;13.70;99.90;;;;;;2614524;54;20148;-74
2022/09/11 00:29:04;;;;;;;51.53;31.53;;;13.70;99.90;;;;;;2615038;39;20916;-74
2022/09/11 00:34:52;;;;;;;66.30;34.33;;;13.70;99.90;;;;;;2615324;54;20956;-74
2022/09/11 00:37:55;;;;;;;59.83;33.60;;;13.50;99.90;;;;;;2614546;54;20427;-75
2022/09/11 00:40:24;;;;;;;50.73;31.07;;;13.60;99.90;;;;;;2614480;54;20181;-75
2022/09/11 00:46:11;;;;;;;57.83;31.70;;;13.40;99.90;;;;;;2614609;54;20378;-74
2022/09/11 00:55:31;;;;;;;56.57;32.63;;;13.50;99.90;;;;;;2614990;54;20461;-74
2022/09/11 00:58:07;;;;;;;61.33;34.03;;;13.50;99.90;;;;;;2616959;31;20857;-75
2022/09/11 01:03:54;;;;;;;56.80;32.57;;;13.60;99.90;;;;;;2614812;39;20786;-72
2022/09/11 01:09:42;;;;;;;53.67;31.77;;;13.50;99.90;;;;;;2615433;54;20438;-72
2022/09/11 01:15:42;;;;;;;65.27;33.13;;;13.20;99.90;;;;;;2614547;54;20398;-72
2022/09/11 01:28:03;;;;;;;59.43;30.30;;;13.50;99.90;;;;;;2615870;39;20748;-72
2022/09/11 01:40:28;;;;;;;51.57;29.20;;;13.80;99.90;;;;;;2615718;54;20920;-72
2022/09/11 01:46:21;;;;;;;58.33;32.13;;;14.00;99.90;;;;;;2615205;54;20431;-72
2022/09/11 01:52:14;;;;;;;55.07;33.13;;;14.00;99.90;;;;;;2613971;54;20452;-72
2022/09/11 01:55:27;;;;;;;67.27;35.07;;;14.00;99.90;;;;;;2614953;54;20415;-73
2022/09/11 02:20:27;;;;;;;79.87;39.20;;;14.40;99.90;;;;;;2614776;54;21183;-71
2022/09/11 02:26:17;;;;;;;84.97;40.00;;;14.40;99.90;;;;;;2615300;39;20782;-72
2022/09/11 02:32:05;;;;;;;72.73;38.13;;;14.30;99.90;;;;;;2615275;54;20551;-71
2022/09/11 02:44:10;;;;;;;86.97;40.53;;;14.10;99.90;;;;;;2615108;54;20372;-71
2022/09/11 02:56:19;;;;;;;85.73;41.10;;;14.20;99.90;;;;;;2614698;54;20379;-72
2022/09/11 03:05:30;;;;;;;99.70;42.83;;;14.10;99.90;;;;;;2614898;54;20455;-73
2022/09/11 03:11:18;;;;;;;83.07;43.67;;;13.80;99.90;;;;;;2614617;46;20991;-73
2022/09/11 03:17:06;;;;;;;91.87;41.63;;;13.80;99.90;;;;;;2614440;54;20940;-72
2022/09/11 03:22:54;;;;;;;86.97;42.90;;;14.10;99.90;;;;;;2615575;39;20927;-72
2022/09/11 03:28:43;;;;;;;95.83;45.67;;;14.10;99.90;;;;;;2614363;54;20674;-72
2022/09/11 03:34:32;;;;;;;106.30;48.80;;;14.40;99.90;;;;;;2614986;31;21004;-72
2022/09/11 03:40:20;;;;;;;135.83;56.17;;;14.50;99.90;;;;;;2614723;54;20391;-72
2022/09/11 03:46:07;;;;;;;163.03;67.63;;;14.60;99.90;;;;;;2614010;39;20872;-72
2022/09/11 03:51:55;;;;;;;147.70;62.70;;;14.60;99.90;;;;;;2614896;54;20186;-73
2022/09/11 03:57:43;;;;;;;164.87;61.37;;;14.70;99.90;;;;;;2615118;46;20432;-73
2022/09/11 04:03:31;;;;;;;185.80;68.03;;;14.80;99.90;;;;;;2615302;54;20230;-71
2022/09/11 04:09:19;;;;;;;212.97;69.70;;;14.70;99.90;;;;;;2614679;54;20134;-73
2022/09/11 04:15:07;;;;;;;343.53;88.27;;;14.70;99.90;;;;;;2612432;54;20125;-72
2022/09/11 04:20:55;;;;;;;256.87;71.23;;;14.60;99.90;;;;;;2613960;54;20407;-72
2022/09/11 04:26:42;;;;;;;623.57;124.57;;;14.70;99.90;;;;;;2614234;54;20382;-71
2022/09/11 04:32:30;;;;;;;446.90;97.20;;;14.60;99.90;;;;;;2616020;54;20287;-73
2022/09/11 04:38:18;;;;;;;728.90;132.70;;;14.60;99.90;;;;;;2614779;54;20668;-72
2022/09/11 04:44:06;;;;;;;661.53;128.27;;;14.60;99.90;;;;;;2613153;54;20134;-73
2022/09/11 04:49:54;;;;;;;622.57;127.47;;;14.60;99.90;;;;;;2615157;39;20635;-71
2022/09/11 04:55:41;;;;;;;624.80;126.00;;;14.60;99.90;;;;;;2614011;54;20138;-72
2022/09/11 05:01:30;;;;;;;547.23;118.67;;;14.60;99.90;;;;;;2613369;46;20632;-72
2022/09/11 05:07:18;;;;;;;482.50;107.10;;;14.70;99.90;;;;;;2614834;54;20516;-73
2022/09/11 05:13:06;;;;;;;492.70;106.00;;;14.70;99.90;;;;;;2614621;39;20562;-73
2022/09/11 05:18:54;;;;;;;530.33;113.50;;;14.70;99.90;;;;;;2615682;54;20651;-72
2022/09/11 05:24:41;;;;;;;501.43;106.63;;;14.70;99.90;;;;;;2612424;54;20516;-76
2022/09/11 05:30:29;;;;;;;485.97;107.70;;;14.70;99.90;;;;;;2615326;54;20168;-73
2022/09/11 05:36:17;;;;;;;544.43;114.50;;;14.70;99.90;;;;;;2614748;54;20121;-71
2022/09/11 05:42:05;;;;;;;526.63;117.70;;;14.70;99.90;;;;;;2611829;46;20158;-70
2022/09/11 05:47:53;;;;;;;470.00;110.33;;;14.70;99.90;;;;;;2614664;54;20290;-72
2022/09/11 05:53:41;;;;;;;356.93;90.77;;;14.70;99.90;;;;;;2612279;54;20985;-72
2022/09/11 05:59:28;;;;;;;399.17;97.07;;;14.80;99.90;;;;;;2615233;54;20134;-70
2022/09/11 06:08:42;;;;;;;323.80;90.10;;;14.90;99.90;;;;;;2615135;54;20515;-73
2022/09/11 06:14:30;;;;;;;443.27;104.47;;;14.90;99.90;;;;;;2614389;54;20451;-72
2022/09/11 06:20:18;;;;;;;409.93;96.67;;;14.90;99.90;;;;;;2614981;54;20391;-72
2022/09/11 06:26:11;;;;;;;355.90;89.33;;;15.10;99.90;;;;;;2615323;54;20422;-72
2022/09/11 06:29:15;;;;;;;355.63;93.17;;;15.00;99.90;;;;;;2615736;39;20783;-72
2022/09/11 06:31:40;;;;;;;510.57;114.80;;;14.90;99.90;;;;;;2612859;54;20435;-71
2022/09/11 06:37:28;;;;;;;258.27;76.60;;;15.00;99.90;;;;;;2610930;54;20655;-71
2022/09/11 06:43:15;;;;;;;298.10;82.73;;;14.90;99.90;;;;;;2610753;54;20152;-72
2022/09/11 06:49:03;;;;;;;288.07;80.83;;;15.00;99.90;;;;;;2612934;54;20166;-74
2022/09/11 06:54:51;;;;;;;424.47;97.60;;;14.80;99.90;;;;;;2612006;54;20138;-73
2022/09/11 07:00:39;;;;;;;375.83;93.53;;;15.10;99.90;;;;;;2609895;54;20404;-72
2022/09/11 07:04:02;;;;;;;256.03;75.60;;;15.10;99.90;;;;;;2613120;54;20423;-72
2022/09/11 07:06:31;;;;;;;279.43;80.53;;;15.10;99.90;;;;;;2612833;54;20425;-73
2022/09/11 07:12:22;;;;;;;305.97;81.40;;;15.20;99.90;;;;;;2612906;54;20941;-73
2022/09/11 07:18:11;;;;;;;216.57;71.60;;;15.20;99.90;;;;;;2612992;54;20451;-72
2022/09/11 07:23:59;;;;;;;232.23;70.60;;;15.30;99.90;;;;;;2609823;54;21123;-71
2022/09/11 07:26:45;;;;;;;206.20;68.87;;;15.30;99.90;;;;;;2614034;54;20435;-70
2022/09/11 07:29:14;;;;;;;187.13;65.77;;;15.40;99.90;;;;;;2612897;47;20174;-73
2022/09/11 07:35:03;;;;;;;146.00;55.33;;;15.50;99.90;;;;;;2613867;54;20452;-73
2022/09/11 07:40:53;;;;;;;155.70;59.10;;;15.40;99.90;;;;;;2614416;54;20394;-71
2022/09/11 07:46:41;;;;;;;178.23;60.80;;;15.60;99.90;;;;;;2614430;54;20472;-72
2022/09/11 07:52:28;;;;;;;179.27;63.60;;;15.60;99.90;;;;;;2615141;54;20152;-72
2022/09/11 07:58:16;;;;;;;146.23;57.43;;;16.00;99.90;;;;;;2614042;54;20166;-72
2022/09/11 08:04:07;;;;;;;126.77;53.90;;;15.90;99.90;;;;;;2614645;54;20537;-72
2022/09/11 08:09:54;;;;;;;125.23;55.47;;;15.90;99.90;;;;;;2614562;54;20396;-71
2022/09/11 08:15:46;;;;;;;118.00;53.10;;;16.40;99.90;;;;;;2614718;54;20155;-72
2022/09/11 08:21:34;;;;;;;97.67;50.23;;;16.30;99.90;;;;;;2614979;54;20465;-72
2022/09/11 08:27:22;;;;;;;101.50;50.27;;;16.30;99.90;;;;;;2613215;54;20745;-72
2022/09/11 08:33:11;;;;;;;96.17;49.13;;;16.30;99.90;;;;;;2614767;54;20167;-72
2022/09/11 08:39:02;;;;;;;97.63;50.60;;;16.20;99.90;;;;;;2614816;54;20404;-72
2022/09/11 08:44:54;;;;;;;94.07;53.30;;;16.10;99.90;;;;;;2613886;54;20413;-71
2022/09/11 08:50:42;;;;;;;106.40;56.73;;;16.20;99.90;;;;;;2614127;54;20409;-73
2022/09/11 08:56:33;;;;;;;100.27;51.20;;;16.40;99.90;;;;;;2614873;54;20396;-71
2022/09/11 09:12:44;;;;;;;89.47;52.93;;;16.40;99.90;;;;;;2613550;54;21025;-71
2022/09/11 09:24:53;;;;;;;78.43;47.00;;;16.20;99.90;;;;;;2614531;54;20419;-71
2022/09/11 09:56:43;;;;;;;55.67;37.10;;;16.50;99.90;;;;;;2615875;54;20410;-72
2022/09/11 10:02:38;;;;;;;55.80;37.70;;;16.80;99.90;;;;;;2615826;54;20446;-72
2022/09/11 10:12:06;;;;;;;49.03;35.80;;;16.90;99.90;;;;;;2615505;54;20459;-71
2022/09/11 10:24:22;;;;;;;56.17;40.63;;;17.30;99.90;;;;;;2615494;54;20412;-71
2022/09/11 10:36:55;;;;;;;53.27;37.00;;;17.30;99.90;;;;;;2615933;54;20368;-71
2022/09/11 10:42:45;;;;;;;56.27;37.57;;;17.60;99.90;;;;;;2615005;46;20386;-71
2022/09/11 10:48:33;;;;;;;55.03;36.57;;;17.50;99.90;;;;;;2614895;54;20417;-74
2022/09/11 10:54:29;;;;;;;47.77;32.60;;;17.80;99.90;;;;;;2615941;54;20393;-72
2022/09/11 11:00:27;;;;;;;55.60;35.47;;;17.50;99.90;;;;;;2614726;54;20410;-71
2022/09/11 11:07:01;;;;;;;47.80;32.60;;;17.70;99.90;;;;;;2613151;54;20394;-72
2022/09/11 11:25:47;;;;;;;52.60;34.43;;;17.90;99.90;;;;;;2613973;54;20400;-71
2022/09/11 11:38:33;;;;;;;50.20;34.80;;;17.90;99.90;;;;;;2613849;54;20520;-73
2022/09/11 11:50:56;;;;;;;52.27;36.13;;;18.00;99.90;;;;;;2615081;54;21018;-74
2022/09/11 11:56:50;;;;;;;43.13;35.20;;;18.40;99.90;;;;;;2615485;54;20458;-71
2022/09/11 12:12:27;;;;;;;34.27;30.70;;;20.90;99.90;;;;;;2615062;39;20833;-72
2022/09/11 12:18:15;;;;;;;33.57;30.13;;;21.10;99.90;;;;;;2614664;54;20420;-71
2022/09/11 12:24:02;;;;;;;31.30;28.20;;;21.40;99.90;;;;;;2615239;54;20138;-73
2022/09/11 12:30:06;;;;;;;28.20;25.43;;;21.20;99.90;;;;;;2614683;39;20669;-72
2022/09/11 12:35:55;;;;;;;29.37;26.30;;;20.90;99.90;;;;;;2613945;54;20949;-71
2022/09/11 12:41:44;;;;;;;26.33;23.83;;;21.80;99.90;;;;;;2613834;54;20383;-70
2022/09/11 12:47:38;;;;;;;27.97;24.97;;;22.00;99.90;;;;;;2614511;54;20482;-74
2022/09/11 13:00:08;;;;;;;31.13;27.83;;;22.30;99.90;;;;;;2615078;54;20432;-71
2022/09/11 13:12:52;;;;;;;35.80;29.17;;;22.40;99.90;;;;;;2614271;54;20384;-72
2022/09/11 13:18:42;;;;;;;33.30;28.50;;;22.00;99.90;;;;;;2614483;54;20992;-71
2022/09/11 13:24:32;;;;;;;31.27;28.03;;;23.60;90.00;;;;;;2612983;54;20986;-71
2022/09/11 13:30:21;;;;;;;33.47;29.43;;;22.90;93.90;;;;;;2614718;39;20822;-71
2022/09/11 13:36:13;;;;;;;31.47;28.07;;;22.60;90.60;;;;;;2613858;54;20379;-71
2022/09/11 13:42:01;;;;;;;26.37;23.57;;;22.90;87.00;;;;;;2613513;54;20522;-71
2022/09/11 13:47:51;;;;;;;29.33;25.43;;;23.20;94.60;;;;;;2615879;39;20778;-71
2022/09/11 13:53:42;;;;;;;26.70;23.83;;;22.90;84.10;;;;;;2615387;54;20393;-72
2022/09/11 13:59:36;;;;;;;26.90;24.10;;;22.90;82.30;;;;;;2614596;54;20407;-70
2022/09/11 14:05:27;;;;;;;25.57;22.87;;;23.30;75.30;;;;;;2615820;39;20870;-70
2022/09/11 14:14:37;;;;;;;24.67;22.27;;;23.20;74.80;;;;;;2614575;54;20413;-71
2022/09/11 14:20:27;;;;;;;22.90;20.60;;;23.60;61.20;;;;;;2615532;54;20929;-72
2022/09/11 14:26:19;;;;;;;25.43;22.83;;;23.20;69.60;;;;;;2614139;54;20384;-70
2022/09/11 14:32:33;;;;;;;21.23;18.90;;;22.80;54.80;;;;;;2613930;54;20367;-71
2022/09/11 14:38:22;;;;;;;23.33;20.93;;;22.50;58.00;;;;;;2615434;54;20398;-71
2022/09/11 14:44:13;;;;;;;21.23;17.40;;;24.10;45.40;;;;;;2615687;54;20463;-70
2022/09/11 14:50:00;;;;;;;17.10;15.30;;;22.60;49.10;;;;;;2615716;54;20422;-71
2022/09/11 14:55:50;;;;;;;20.63;18.47;;;24.00;42.50;;;;;;2615002;54;20144;-71
2022/09/11 15:01:37;;;;;;;21.83;18.70;;;24.60;47.00;;;;;;2613864;39;20800;-70
2022/09/11 15:07:26;;;;;;;20.10;18.20;;;24.50;47.80;;;;;;2614237;54;20174;-71
2022/09/11 15:10:09;;;;;;;17.20;15.20;;;24.40;42.60;;;;;;2613334;54;20555;-71
2022/09/11 15:12:35;;;;;;;17.87;16.20;;;24.60;41.40;;;;;;2612513;54;20407;-72
2022/09/11 15:18:23;;;;;;;17.27;15.63;;;23.50;41.40;;;;;;2614367;54;20468;-71
2022/09/11 15:24:11;;;;;;;15.63;14.17;;;24.10;41.10;;;;;;2615043;54;20194;-72
2022/09/11 15:29:59;;;;;;;15.90;14.27;;;23.50;43.20;;;;;;2614991;39;20520;-71
2022/09/11 15:35:47;;;;;;;16.47;14.93;;;23.10;44.30;;;;;;2615054;54;20399;-71
2022/09/11 15:41:35;;;;;;;20.00;15.00;;;22.30;46.00;;;;;;2615600;54;20509;-72
2022/09/11 15:47:23;;;;;;;14.50;13.20;;;22.80;45.20;;;;;;2614493;54;20134;-73
2022/09/11 15:53:10;;;;;;;15.23;13.80;;;22.30;47.80;;;;;;2615230;54;20260;-71
2022/09/11 15:58:59;;;;;;;14.57;13.27;;;22.10;44.50;;;;;;2614474;54;20130;-71
2022/09/11 16:04:46;;;;;;;14.30;12.93;;;22.80;49.80;;;;;;2614403;54;20395;-71
2022/09/11 16:14:40;;;;;;;13.27;11.97;;;22.10;41.00;;;;;;2614352;54;20383;-70
2022/09/11 16:20:28;;;;;;;14.80;13.33;;;23.30;44.60;;;;;;2615339;54;20422;-71
2022/09/11 16:26:18;;;;;;;15.30;13.70;;;23.30;41.70;;;;;;2615720;54;20164;-74
2022/09/11 16:32:06;;;;;;;17.17;15.40;;;23.20;41.90;;;;;;2616074;54;20423;-71
2022/09/11 16:37:54;;;;;;;16.30;14.80;;;23.60;42.10;;;;;;2615486;54;20245;-71
2022/09/11 16:43:44;;;;;;;15.20;13.80;;;23.80;42.10;;;;;;2616698;54;20126;-71
2022/09/11 16:49:32;;;;;;;13.73;12.53;;;24.00;42.40;;;;;;2616552;39;20767;-70
2022/09/11 16:55:20;;;;;;;13.20;12.10;;;23.80;37.30;;;;;;2616184;54;20976;-70
2022/09/11 17:01:13;;;;;;;13.70;12.37;;;23.70;42.20;;;;;;2616080;54;20411;-74
2022/09/11 17:07:01;;;;;;;14.03;12.70;;;23.20;44.60;;;;;;2616230;54;20381;-71
2022/09/11 17:10:06;;;;;;;14.50;13.10;;;22.90;41.00;;;;;;2614686;39;20475;-71
2022/09/11 17:12:32;;;;;;;14.20;12.83;;;21.80;50.30;;;;;;2614757;47;20206;-74
2022/09/11 17:18:20;;;;;;;15.97;14.33;;;20.60;79.30;;;;;;2615680;54;20156;-71
2022/09/11 17:24:08;;;;;;;16.90;14.83;;;19.90;96.40;;;;;;2614395;54;20150;-70
2022/09/11 17:29:56;;;;;;;15.00;13.67;;;19.50;99.90;;;;;;2616052;54;20398;-73
2022/09/11 17:35:45;;;;;;;15.73;14.13;;;19.10;99.90;;;;;;2615300;54;20501;-73
2022/09/11 17:41:33;;;;;;;18.27;15.30;;;18.70;99.90;;;;;;2615854;54;20433;-75
2022/09/11 17:47:21;;;;;;;18.40;16.47;;;18.40;99.90;;;;;;2616389;39;20517;-71
2022/09/11 17:53:08;;;;;;;19.83;16.53;;;18.10;99.90;;;;;;2615151;54;20152;-71
2022/09/11 17:58:58;;;;;;;25.90;19.10;;;17.80;99.90;;;;;;2614246;54;20157;-72
2022/09/11 18:04:46;;;;;;;20.33;16.80;;;17.50;99.90;;;;;;2616032;54;20405;-73
2022/09/11 18:14:41;;;;;;;23.07;17.30;;;17.20;99.90;;;;;;2615854;54;20973;-70
2022/09/11 18:20:30;;;;;;;23.70;18.23;;;16.90;99.90;;;;;;2615307;54;21009;-71
2022/09/11 18:26:24;;;;;;;24.97;19.67;;;16.80;99.90;;;;;;2614575;54;20407;-71
2022/09/11 18:29:28;;;;;;;23.90;20.47;;;16.70;99.90;;;;;;2614598;54;20413;-72
2022/09/11 18:31:54;;;;;;;25.63;20.17;;;16.60;99.90;;;;;;2615613;54;20447;-71
2022/09/11 18:37:41;;;;;;;26.43;20.00;;;16.30;99.90;;;;;;2615094;54;20647;-71
2022/09/11 18:43:29;;;;;;;27.87;22.33;;;16.20;99.90;;;;;;2615425;54;20158;-71
2022/09/11 18:49:17;;;;;;;25.30;21.63;;;16.00;99.90;;;;;;2614344;54;20127;-71
2022/09/11 18:55:05;;;;;;;30.43;24.53;;;15.80;99.90;;;;;;2615314;54;20168;-71
2022/09/11 19:00:55;;;;;;;31.30;24.47;;;15.60;99.90;;;;;;2612477;54;20473;-70
2022/09/11 19:06:44;;;;;;;24.57;21.60;;;15.50;99.90;;;;;;2614581;54;20416;-72
2022/09/11 19:12:32;;;;;;;31.13;23.50;;;15.40;99.90;;;;;;2614855;54;20438;-72
2022/09/11 19:18:20;;;;;;;24.13;21.50;;;15.20;99.90;;;;;;2614550;54;20841;-71
2022/09/11 19:24:07;;;;;;;29.83;22.60;;;15.10;99.90;;;;;;2614144;54;20479;-71
2022/09/11 19:29:55;;;;;;;32.27;23.93;;;14.90;99.90;;;;;;2614819;54;20138;-71
2022/09/11 19:41:58;;;;;;;38.17;22.00;;;15.10;99.90;;;;;;2614865;54;20395;-72
2022/09/11 19:47:46;;;;;;;31.23;22.17;;;15.00;99.90;;;;;;2614613;54;20396;-72
2022/09/11 19:53:35;;;;;;;33.43;24.97;;;14.80;99.90;;;;;;2614854;54;20138;-72
2022/09/11 19:59:23;;;;;;;34.87;22.00;;;14.70;99.90;;;;;;2613910;54;20438;-72
2022/09/11 20:05:11;;;;;;;38.50;25.10;;;14.50;99.90;;;;;;2613559;54;20133;-71
2022/09/11 20:14:43;;;;;;;43.60;29.33;;;14.20;99.90;;;;;;2615104;54;20440;-72
2022/09/11 20:20:32;;;;;;;41.23;26.63;;;14.20;99.90;;;;;;2615341;54;20391;-71
2022/09/11 20:32:39;;;;;;;36.63;25.37;;;14.00;99.90;;;;;;2615222;54;20395;-70
2022/09/11 20:38:27;;;;;;;39.67;28.50;;;14.00;99.90;;;;;;2613161;54;20126;-72
2022/09/11 20:44:14;;;;;;;49.00;32.40;;;14.00;99.90;;;;;;2615945;39;20731;-71
2022/09/11 20:50:03;;;;;;;46.10;30.73;;;14.00;99.90;;;;;;2614672;54;20143;-73
2022/09/11 20:55:51;;;;;;;51.07;29.37;;;13.80;99.90;;;;;;2614072;54;20433;-73
2022/09/11 21:01:39;;;;;;;54.60;30.70;;;13.90;99.90;;;;;;2614572;54;20146;-71
2022/09/11 21:07:26;;;;;;;46.67;30.67;;;13.80;99.90;;;;;;2614101;54;20138;-71
2022/09/11 21:13:35;;;;;;;44.10;30.03;;;13.80;99.90;;;;;;2613670;54;20176;-71
2022/09/11 21:19:22;;;;;;;52.93;30.30;;;13.60;99.90;;;;;;2612995;54;20428;-71
2022/09/11 21:25:09;;;;;;;57.60;32.77;;;13.50;99.90;;;;;;2613411;54;20148;-71
2022/09/11 21:30:57;;;;;;;52.63;31.57;;;13.50;99.90;;;;;;2613396;54;20396;-72
2022/09/11 21:36:44;;;;;;;53.50;31.57;;;13.40;99.90;;;;;;2613949;54;20383;-71
2022/09/11 21:42:31;;;;;;;58.23;30.57;;;13.30;99.90;;;;;;2614462;54;20161;-72
2022/09/11 21:48:19;;;;;;;56.57;31.37;;;13.30;99.90;;;;;;2614505;54;20134;-72
2022/09/11 21:54:07;;;;;;;60.33;34.20;;;13.50;99.90;;;;;;2615747;54;20969;-72
2022/09/11 21:59:55;;;;;;;62.07;34.60;;;13.30;99.90;;;;;;2615386;54;20143;-72
2022/09/11 22:05:46;;;;;;;50.97;32.97;;;13.00;99.90;;;;;;2615909;54;21167;-70
2022/09/11 22:14:56;;;;;;;54.20;31.57;;;13.00;99.90;;;;;;2615572;54;21003;-72
2022/09/11 22:20:44;;;;;;;69.93;36.23;;;13.10;99.90;;;;;;2616133;39;20606;-72
2022/09/11 22:26:32;;;;;;;70.10;37.63;;;13.00;99.90;;;;;;2614947;54;20404;-73
2022/09/11 22:32:20;;;;;;;67.50;34.97;;;12.90;99.90;;;;;;2615500;46;20280;-71
2022/09/11 22:38:07;;;;;;;51.03;33.30;;;12.80;99.90;;;;;;2615371;54;20130;-71
2022/09/11 22:43:55;;;;;;;65.80;34.20;;;12.80;99.90;;;;;;2614104;46;20145;-71
2022/09/11 22:49:43;;;;;;;63.50;35.03;;;12.70;99.90;;;;;;2615438;54;20429;-73
2022/09/11 22:55:31;;;;;;;74.63;35.93;;;12.60;99.90;;;;;;2615496;54;20159;-72
2022/09/11 23:01:19;;;;;;;65.47;35.67;;;12.50;99.90;;;;;;2614743;54;20242;-72
2022/09/11 23:07:14;;;;;;;63.73;34.13;;;12.40;99.90;;;;;;2615356;54;20457;-71
2022/09/11 23:10:25;;;;;;;64.30;34.90;;;12.40;99.90;;;;;;2613761;47;20984;-71
2022/09/11 23:12:52;;;;;;;60.07;33.97;;;12.40;99.90;;;;;;2614765;46;20430;-72
2022/09/11 23:18:40;;;;;;;72.37;36.97;;;12.40;99.90;;;;;;2613101;54;20500;-73
2022/09/11 23:24:28;;;;;;;81.37;39.97;;;12.40;99.90;;;;;;2615744;54;20378;-72
2022/09/11 23:30:16;;;;;;;72.63;35.30;;;12.50;99.90;;;;;;2615314;54;20154;-72
2022/09/11 23:36:09;;;;;;;77.00;37.20;;;12.30;99.90;;;;;;2614995;47;20447;-72
2022/09/11 23:41:56;;;;;;;69.73;36.03;;;12.50;99.90;;;;;;2615218;54;20427;-71
2022/09/11 23:47:44;;;;;;;73.53;36.67;;;12.30;99.90;;;;;;2614372;54;20170;-71
2022/09/11 23:53:32;;;;;;;70.70;37.73;;;12.20;99.90;;;;;;2615391;54;20126;-75
2022/09/11 23:59:19;;;;;;;65.60;35.77;;;12.30;99.90;;;;;;2614164;54;20230;-71
